AZR weather

Touat Cheikh Sidi Mohamed Belkebir Airport
Adrar Province, Algeria

Public forecast

Using degrees Celsius for public forecast. Weather courtesy of forecast.io.

METAR (pilot weather report)

Retrieved 2019/09/22 06:00 UTC (55 minutes ago):

DAUA 220600Z 09009KT 6000 NSC 27/03 Q1012

TAF (pilot weather forecast)

Forecast is more than 12 hours old.

Retrieved 2019/09/21 00:33 UTC (1 day ago):

TAF DAUA 212300Z 2200/2224 VRB02KT 8000 NSC PROB30 TEMPO 2200/2206 5000 HZ BECMG 2207/2210 15010KT BECMG 2215/2218 24010KT